sensor_id;sensor_type;location;lat;lon;timestamp;pressure;altitude;pressure_sealevel;temperature;humidity
78990;BME280;68390;52.130;21.218;2023-05-20T00:00:48;101655.47;;;12.28;87.49
78990;BME280;68390;52.130;21.218;2023-05-20T00:03:14;101665.47;;;12.29;87.59
78990;BME280;68390;52.130;21.218;2023-05-20T00:05:40;101661.97;;;12.27;87.40
78990;BME280;68390;52.130;21.218;2023-05-20T00:08:05;101652.84;;;12.27;87.53
78990;BME280;68390;52.130;21.218;2023-05-20T00:10:34;101653.72;;;12.27;87.54
78990;BME280;68390;52.130;21.218;2023-05-20T00:12:59;101657.34;;;12.28;87.29
78990;BME280;68390;52.130;21.218;2023-05-20T00:15:25;101649.56;;;12.23;87.01
78990;BME280;68390;52.130;21.218;2023-05-20T00:17:50;101646.78;;;12.23;87.36
78990;BME280;68390;52.130;21.218;2023-05-20T00:20:16;101649.13;;;12.18;87.28
78990;BME280;68390;52.130;21.218;2023-05-20T00:22:41;101647.38;;;12.17;87.15
78990;BME280;68390;52.130;21.218;2023-05-20T00:25:07;101645.97;;;12.13;87.43
78990;BME280;68390;52.130;21.218;2023-05-20T00:27:33;101642.50;;;12.11;87.24
78990;BME280;68390;52.130;21.218;2023-05-20T00:29:58;101637.28;;;12.08;86.71
78990;BME280;68390;52.130;21.218;2023-05-20T00:32:23;101639.00;;;12.09;87.03
78990;BME280;68390;52.130;21.218;2023-05-20T00:34:59;101641.03;;;12.07;87.55
78990;BME280;68390;52.130;21.218;2023-05-20T00:37:25;101638.19;;;11.99;87.20
78990;BME280;68390;52.130;21.218;2023-05-20T00:39:50;101632.81;;;11.97;86.91
78990;BME280;68390;52.130;21.218;2023-05-20T00:42:22;101637.31;;;11.98;87.39
78990;BME280;68390;52.130;21.218;2023-05-20T00:44:48;101638.47;;;11.96;86.89
78990;BME280;68390;52.130;21.218;2023-05-20T00:47:15;101649.47;;;11.96;86.98
78990;BME280;68390;52.130;21.218;2023-05-20T00:49:43;101642.22;;;11.95;87.40
78990;BME280;68390;52.130;21.218;2023-05-20T00:52:08;101641.25;;;11.86;87.85
78990;BME280;68390;52.130;21.218;2023-05-20T00:54:35;101643.13;;;11.86;87.91
78990;BME280;68390;52.130;21.218;2023-05-20T00:57:01;101645.16;;;11.84;87.78
78990;BME280;68390;52.130;21.218;2023-05-20T00:59:27;101635.34;;;11.81;87.65
78990;BME280;68390;52.130;21.218;2023-05-20T01:01:52;101643.44;;;11.83;87.30
78990;BME280;68390;52.130;21.218;2023-05-20T01:04:19;101639.25;;;11.79;87.55
78990;BME280;68390;52.130;21.218;2023-05-20T01:06:44;101627.50;;;11.76;87.67
78990;BME280;68390;52.130;21.218;2023-05-20T01:09:10;101638.50;;;11.76;87.11
78990;BME280;68390;52.130;21.218;2023-05-20T01:11:43;101639.38;;;11.77;87.89
78990;BME280;68390;52.130;21.218;2023-05-20T01:14:12;101637.66;;;11.76;87.20
78990;BME280;68390;52.130;21.218;2023-05-20T01:16:40;101632.13;;;11.76;87.54
78990;BME280;68390;52.130;21.218;2023-05-20T01:21:59;101637.34;;;11.79;87.29
78990;BME280;68390;52.130;21.218;2023-05-20T01:24:25;101641.84;;;11.80;87.11
78990;BME280;68390;52.130;21.218;2023-05-20T01:26:50;101634.03;;;11.75;87.35
78990;BME280;68390;52.130;21.218;2023-05-20T01:29:16;101636.50;;;11.79;87.29
78990;BME280;68390;52.130;21.218;2023-05-20T01:31:43;101642.00;;;11.79;87.37
78990;BME280;68390;52.130;21.218;2023-05-20T01:34:11;101635.75;;;11.76;87.54
78990;BME280;68390;52.130;21.218;2023-05-20T01:36:38;101639.09;;;11.80;87.39
78990;BME280;68390;52.130;21.218;2023-05-20T01:39:04;101640.84;;;11.81;86.75
78990;BME280;68390;52.130;21.218;2023-05-20T01:41:30;101633.00;;;11.76;87.17
78990;BME280;68390;52.130;21.218;2023-05-20T01:43:56;101639.38;;;11.77;87.17
78990;BME280;68390;52.130;21.218;2023-05-20T01:46:22;101646.19;;;11.83;86.65
78990;BME280;68390;52.130;21.218;2023-05-20T01:48:48;101641.56;;;11.83;86.98
78990;BME280;68390;52.130;21.218;2023-05-20T01:51:14;101645.47;;;11.81;87.54
78990;BME280;68390;52.130;21.218;2023-05-20T01:53:40;101633.72;;;11.79;87.25
78990;BME280;68390;52.130;21.218;2023-05-20T01:56:05;101636.50;;;11.79;87.54
78990;BME280;68390;52.130;21.218;2023-05-20T01:58:30;101628.22;;;11.79;87.06
78990;BME280;68390;52.130;21.218;2023-05-20T02:00:56;101629.97;;;11.80;86.97
78990;BME280;68390;52.130;21.218;2023-05-20T02:03:21;101634.31;;;11.82;87.06
78990;BME280;68390;52.130;21.218;2023-05-20T02:05:46;101625.47;;;11.79;87.35
78990;BME280;68390;52.130;21.218;2023-05-20T02:08:12;101628.22;;;11.79;87.20
78990;BME280;68390;52.130;21.218;2023-05-20T02:10:37;101637.06;;;11.82;86.92
78990;BME280;68390;52.130;21.218;2023-05-20T02:13:03;101620.25;;;11.75;86.96
78990;BME280;68390;52.130;21.218;2023-05-20T02:15:28;101633.00;;;11.76;87.50
78990;BME280;68390;52.130;21.218;2023-05-20T02:17:53;101626.63;;;11.76;87.23
78990;BME280;68390;52.130;21.218;2023-05-20T02:20:19;101622.25;;;11.73;87.27
78990;BME280;68390;52.130;21.218;2023-05-20T02:22:44;101624.00;;;11.74;87.25
78990;BME280;68390;52.130;21.218;2023-05-20T02:25:10;101635.75;;;11.76;86.90
78990;BME280;68390;52.130;21.218;2023-05-20T02:27:35;101635.00;;;11.74;86.85
78990;BME280;68390;52.130;21.218;2023-05-20T02:30:01;101640.50;;;11.74;87.51
78990;BME280;68390;52.130;21.218;2023-05-20T02:32:26;101626.34;;;11.69;87.18
78990;BME280;68390;52.130;21.218;2023-05-20T02:34:54;101631.28;;;11.75;86.74
78990;BME280;68390;52.130;21.218;2023-05-20T02:37:19;101636.78;;;11.75;86.68
78990;BME280;68390;52.130;21.218;2023-05-20T02:39:45;101635.75;;;11.76;86.52
78990;BME280;68390;52.130;21.218;2023-05-20T02:42:11;101633.88;;;11.77;86.71
78990;BME280;68390;52.130;21.218;2023-05-20T02:44:36;101636.78;;;11.75;86.38
78990;BME280;68390;52.130;21.218;2023-05-20T02:47:01;101630.97;;;11.79;86.19
78990;BME280;68390;52.130;21.218;2023-05-20T02:49:27;101622.88;;;11.77;86.49
78990;BME280;68390;52.130;21.218;2023-05-20T02:51:52;101629.50;;;11.74;86.78
78990;BME280;68390;52.130;21.218;2023-05-20T02:54:17;101642.00;;;11.79;86.99
78990;BME280;68390;52.130;21.218;2023-05-20T02:56:43;101640.09;;;11.79;86.72
78990;BME280;68390;52.130;21.218;2023-05-20T02:59:08;101644.59;;;11.80;86.93
78990;BME280;68390;52.130;21.218;2023-05-20T03:01:33;101636.50;;;11.79;86.95
78990;BME280;68390;52.130;21.218;2023-05-20T03:04:01;101630.69;;;11.82;86.73
78990;BME280;68390;52.130;21.218;2023-05-20T03:06:26;101637.94;;;11.83;86.09
78990;BME280;68390;52.130;21.218;2023-05-20T03:08:56;101635.00;;;11.84;86.41
78990;BME280;68390;52.130;21.218;2023-05-20T03:11:22;101639.66;;;11.84;86.09
78990;BME280;68390;52.130;21.218;2023-05-20T03:13:48;101644.88;;;11.87;86.32
78990;BME280;68390;52.130;21.218;2023-05-20T03:16:13;101642.13;;;11.87;86.02
78990;BME280;68390;52.130;21.218;2023-05-20T03:18:38;101642.13;;;11.87;86.25
78990;BME280;68390;52.130;21.218;2023-05-20T03:21:04;101654.56;;;11.91;86.41
78990;BME280;68390;52.130;21.218;2023-05-20T03:23:29;101647.03;;;11.93;86.30
78990;BME280;68390;52.130;21.218;2023-05-20T03:25:54;101648.94;;;11.92;86.19
78990;BME280;68390;52.130;21.218;2023-05-20T03:28:20;101643.09;;;11.95;85.96
78990;BME280;68390;52.130;21.218;2023-05-20T03:30:45;101646.88;;;11.94;85.85
78990;BME280;68390;52.130;21.218;2023-05-20T03:33:10;101642.22;;;11.95;85.72
78990;BME280;68390;52.130;21.218;2023-05-20T03:35:36;101650.06;;;11.99;85.26
78990;BME280;68390;52.130;21.218;2023-05-20T03:38:01;101650.63;;;12.03;85.44
78990;BME280;68390;52.130;21.218;2023-05-20T03:40:27;101650.63;;;12.03;85.32
78990;BME280;68390;52.130;21.218;2023-05-20T03:42:52;101646.69;;;12.05;85.46
78990;BME280;68390;52.130;21.218;2023-05-20T03:45:18;101644.81;;;12.06;84.80
78990;BME280;68390;52.130;21.218;2023-05-20T03:47:43;101648.28;;;12.08;84.75
78990;BME280;68390;52.130;21.218;2023-05-20T03:50:09;101645.81;;;12.05;84.82
78990;BME280;68390;52.130;21.218;2023-05-20T03:52:34;101650.75;;;12.11;85.18
78990;BME280;68390;52.130;21.218;2023-05-20T03:55:00;101644.22;;;12.12;84.47
78990;BME280;68390;52.130;21.218;2023-05-20T03:57:25;101645.63;;;12.16;84.55
78990;BME280;68390;52.130;21.218;2023-05-20T03:59:51;101650.84;;;12.19;83.70
78990;BME280;68390;52.130;21.218;2023-05-20T04:02:16;101646.94;;;12.22;84.14
78990;BME280;68390;52.130;21.218;2023-05-20T04:04:41;101650.97;;;12.27;84.04
78990;BME280;68390;52.130;21.218;2023-05-20T04:07:08;101654.28;;;12.31;84.23
78990;BME280;68390;52.130;21.218;2023-05-20T04:09:33;101657.44;;;12.36;84.33
78990;BME280;68390;52.130;21.218;2023-05-20T04:11:58;101653.69;;;12.37;83.50
78990;BME280;68390;52.130;21.218;2023-05-20T04:14:24;101647.00;;;12.39;83.57
78990;BME280;68390;52.130;21.218;2023-05-20T04:16:49;101653.09;;;12.43;83.20
78990;BME280;68390;52.130;21.218;2023-05-20T04:19:15;101647.72;;;12.41;83.27
78990;BME280;68390;52.130;21.218;2023-05-20T04:21:43;101651.75;;;12.47;83.31
78990;BME280;68390;52.130;21.218;2023-05-20T04:24:09;101655.94;;;12.51;83.48
78990;BME280;68390;52.130;21.218;2023-05-20T04:26:35;101651.88;;;12.55;82.68
78990;BME280;68390;52.130;21.218;2023-05-20T04:29:01;101649.38;;;12.62;83.21
78990;BME280;68390;52.130;21.218;2023-05-20T04:31:28;101642.69;;;12.64;83.56
78990;BME280;68390;52.130;21.218;2023-05-20T04:33:55;101643.78;;;12.71;82.43
78990;BME280;68390;52.130;21.218;2023-05-20T04:36:20;101646.25;;;12.74;81.60
78990;BME280;68390;52.130;21.218;2023-05-20T04:38:46;101644.03;;;12.78;81.81
78990;BME280;68390;52.130;21.218;2023-05-20T04:41:12;101649.66;;;12.86;81.87
78990;BME280;68390;52.130;21.218;2023-05-20T04:43:40;101652.81;;;12.91;80.98
78990;BME280;68390;52.130;21.218;2023-05-20T04:46:05;101636.69;;;12.96;82.65
78990;BME280;68390;52.130;21.218;2023-05-20T04:48:31;101640.53;;;13.03;82.74
78990;BME280;68390;52.130;21.218;2023-05-20T04:50:56;101639.22;;;13.07;80.77
78990;BME280;68390;52.130;21.218;2023-05-20T04:53:22;101634.09;;;13.12;80.52
78990;BME280;68390;52.130;21.218;2023-05-20T04:55:53;101632.78;;;13.16;80.28
78990;BME280;68390;52.130;21.218;2023-05-20T04:58:19;101626.47;;;13.24;79.88
78990;BME280;68390;52.130;21.218;2023-05-20T05:00:49;101636.72;;;13.32;79.71
78990;BME280;68390;52.130;21.218;2023-05-20T05:03:14;101635.09;;;13.39;79.03
78990;BME280;68390;52.130;21.218;2023-05-20T05:05:40;101640.09;;;13.43;79.28
78990;BME280;68390;52.130;21.218;2023-05-20T05:08:07;101649.81;;;13.47;78.17
78990;BME280;68390;52.130;21.218;2023-05-20T05:10:33;101653.19;;;13.59;78.06
78990;BME280;68390;52.130;21.218;2023-05-20T05:12:59;101652.22;;;13.68;78.57
78990;BME280;68390;52.130;21.218;2023-05-20T05:15:25;101650.19;;;13.70;78.36
78990;BME280;68390;52.130;21.218;2023-05-20T05:17:51;101647.94;;;13.74;77.40
78990;BME280;68390;52.130;21.218;2023-05-20T05:20:17;101655.44;;;13.81;76.93
78990;BME280;68390;52.130;21.218;2023-05-20T05:22:43;101652.03;;;13.87;77.21
78990;BME280;68390;52.130;21.218;2023-05-20T05:25:09;101652.25;;;13.94;76.97
78990;BME280;68390;52.130;21.218;2023-05-20T05:27:35;101648.66;;;14.02;77.81
78990;BME280;68390;52.130;21.218;2023-05-20T05:30:01;101645.28;;;14.08;76.91
78990;BME280;68390;52.130;21.218;2023-05-20T05:32:27;101643.63;;;14.23;78.11
78990;BME280;68390;52.130;21.218;2023-05-20T05:34:52;101648.88;;;14.34;77.50
78990;BME280;68390;52.130;21.218;2023-05-20T05:37:18;101654.31;;;14.44;77.73
78990;BME280;68390;52.130;21.218;2023-05-20T05:39:44;101653.50;;;14.51;76.84
78990;BME280;68390;52.130;21.218;2023-05-20T05:42:09;101659.06;;;14.59;75.12
78990;BME280;68390;52.130;21.218;2023-05-20T05:44:35;101651.13;;;14.64;74.01
78990;BME280;68390;52.130;21.218;2023-05-20T05:47:01;101648.56;;;14.71;74.13
78990;BME280;68390;52.130;21.218;2023-05-20T05:49:27;101645.66;;;14.81;73.51
78990;BME280;68390;52.130;21.218;2023-05-20T05:51:55;101651.22;;;14.89;74.74
78990;BME280;68390;52.130;21.218;2023-05-20T05:54:20;101654.72;;;14.99;74.29
78990;BME280;68390;52.130;21.218;2023-05-20T05:56:46;101650.75;;;15.01;73.28
78990;BME280;68390;52.130;21.218;2023-05-20T05:59:11;101656.28;;;15.10;73.13
78990;BME280;68390;52.130;21.218;2023-05-20T06:01:37;101650.94;;;15.16;72.70
78990;BME280;68390;52.130;21.218;2023-05-20T06:04:03;101652.34;;;15.20;72.22
78990;BME280;68390;52.130;21.218;2023-05-20T06:06:30;101644.25;;;15.35;71.85
78990;BME280;68390;52.130;21.218;2023-05-20T06:08:56;101652.38;;;15.45;71.41
78990;BME280;68390;52.130;21.218;2023-05-20T06:11:22;101645.97;;;15.52;71.06
78990;BME280;68390;52.130;21.218;2023-05-20T06:13:48;101653.66;;;15.66;70.30
78990;BME280;68390;52.130;21.218;2023-05-20T06:16:13;101656.91;;;15.78;68.60
78990;BME280;68390;52.130;21.218;2023-05-20T06:18:39;101651.03;;;15.81;69.01
78990;BME280;68390;52.130;21.218;2023-05-20T06:21:04;101654.84;;;15.96;69.12
78990;BME280;68390;52.130;21.218;2023-05-20T06:23:30;101651.69;;;16.07;69.42
78990;BME280;68390;52.130;21.218;2023-05-20T06:25:59;101652.38;;;16.18;68.12
78990;BME280;68390;52.130;21.218;2023-05-20T06:28:25;101645.06;;;16.25;68.92
78990;BME280;68390;52.130;21.218;2023-05-20T06:30:51;101645.22;;;16.39;68.19
78990;BME280;68390;52.130;21.218;2023-05-20T06:33:19;101659.91;;;16.48;66.90
78990;BME280;68390;52.130;21.218;2023-05-20T06:35:44;101647.75;;;16.57;67.80
78990;BME280;68390;52.130;21.218;2023-05-20T06:38:10;101648.25;;;16.69;67.96
78990;BME280;68390;52.130;21.218;2023-05-20T06:40:35;101646.81;;;16.81;66.19
78990;BME280;68390;52.130;21.218;2023-05-20T06:43:00;101640.00;;;16.92;66.58
78990;BME280;68390;52.130;21.218;2023-05-20T06:45:26;101643.94;;;16.97;65.83
78990;BME280;68390;52.130;21.218;2023-05-20T06:47:51;101635.63;;;16.97;66.39
78990;BME280;68390;52.130;21.218;2023-05-20T06:50:18;101630.59;;;17.01;67.31
78990;BME280;68390;52.130;21.218;2023-05-20T06:52:44;101634.84;;;17.11;65.60
78990;BME280;68390;52.130;21.218;2023-05-20T06:55:09;101630.19;;;17.12;69.04
78990;BME280;68390;52.130;21.218;2023-05-20T06:57:35;101643.13;;;17.19;65.08
78990;BME280;68390;52.130;21.218;2023-05-20T07:00:01;101630.41;;;17.25;64.22
78990;BME280;68390;52.130;21.218;2023-05-20T07:02:26;101637.44;;;17.36;63.91
78990;BME280;68390;52.130;21.218;2023-05-20T07:04:52;101632.22;;;17.41;65.93
78990;BME280;68390;52.130;21.218;2023-05-20T07:07:17;101624.50;;;17.51;65.93
78990;BME280;68390;52.130;21.218;2023-05-20T07:09:42;101623.19;;;17.61;65.85
78990;BME280;68390;52.130;21.218;2023-05-20T07:12:08;101620.88;;;17.73;64.01
78990;BME280;68390;52.130;21.218;2023-05-20T07:14:33;101615.75;;;17.85;64.73
78990;BME280;68390;52.130;21.218;2023-05-20T07:16:58;101616.50;;;17.93;63.47
78990;BME280;68390;52.130;21.218;2023-05-20T07:19:24;101611.53;;;18.04;63.70
78990;BME280;68390;52.130;21.218;2023-05-20T07:21:49;101613.19;;;18.13;63.97
78990;BME280;68390;52.130;21.218;2023-05-20T07:24:15;101614.44;;;18.25;63.00
78990;BME280;68390;52.130;21.218;2023-05-20T07:26:41;101614.84;;;18.37;64.10
78990;BME280;68390;52.130;21.218;2023-05-20T07:29:06;101616.91;;;18.49;63.25
78990;BME280;68390;52.130;21.218;2023-05-20T07:31:34;101614.25;;;18.56;61.26
78990;BME280;68390;52.130;21.218;2023-05-20T07:33:59;101610.72;;;18.62;61.55
78990;BME280;68390;52.130;21.218;2023-05-20T07:36:26;101614.91;;;18.73;61.76
78990;BME280;68390;52.130;21.218;2023-05-20T07:38:51;101602.25;;;18.85;60.54
78990;BME280;68390;52.130;21.218;2023-05-20T07:41:17;101607.09;;;18.97;61.69
78990;BME280;68390;52.130;21.218;2023-05-20T07:43:42;101599.09;;;19.09;60.73
78990;BME280;68390;52.130;21.218;2023-05-20T07:46:07;101606.94;;;19.20;59.76
78990;BME280;68390;52.130;21.218;2023-05-20T07:48:33;101594.13;;;19.26;59.78
78990;BME280;68390;52.130;21.218;2023-05-20T07:50:58;101591.22;;;19.34;59.11
78990;BME280;68390;52.130;21.218;2023-05-20T07:53:26;101596.25;;;19.45;59.32
78990;BME280;68390;52.130;21.218;2023-05-20T07:55:52;101593.16;;;19.55;58.39
78990;BME280;68390;52.130;21.218;2023-05-20T07:58:17;101598.00;;;19.67;59.29
78990;BME280;68390;52.130;21.218;2023-05-20T08:00:43;101591.22;;;19.76;57.33
78990;BME280;68390;52.130;21.218;2023-05-20T08:03:09;101590.44;;;19.83;56.59
78990;BME280;68390;52.130;21.218;2023-05-20T08:05:37;101586.81;;;19.89;56.72
78990;BME280;68390;52.130;21.218;2023-05-20T08:08:03;101583.88;;;19.97;56.73
78990;BME280;68390;52.130;21.218;2023-05-20T08:10:29;101593.13;;;20.04;56.79
78990;BME280;68390;52.130;21.218;2023-05-20T08:12:55;101600.53;;;20.18;56.94
78990;BME280;68390;52.130;21.218;2023-05-20T08:15:20;101596.31;;;20.29;56.94
78990;BME280;68390;52.130;21.218;2023-05-20T08:17:45;101588.28;;;20.40;58.11
78990;BME280;68390;52.130;21.218;2023-05-20T08:20:11;101596.53;;;20.55;57.51
78990;BME280;68390;52.130;21.218;2023-05-20T08:22:37;101592.28;;;20.66;56.94
78990;BME280;68390;52.130;21.218;2023-05-20T08:25:06;101587.53;;;20.66;56.38
78990;BME280;68390;52.130;21.218;2023-05-20T08:27:32;101590.41;;;20.79;56.87
78990;BME280;68390;52.130;21.218;2023-05-20T08:29:57;101591.72;;;20.90;55.32
78990;BME280;68390;52.130;21.218;2023-05-20T08:32:22;101592.19;;;21.00;53.59
78990;BME280;68390;52.130;21.218;2023-05-20T08:34:48;101603.16;;;21.08;55.87
78990;BME280;68390;52.130;21.218;2023-05-20T08:37:13;101590.34;;;21.20;54.91
78990;BME280;68390;52.130;21.218;2023-05-20T08:39:39;101591.44;;;21.33;53.49
78990;BME280;68390;52.130;21.218;2023-05-20T08:42:04;101596.00;;;21.47;52.86
78990;BME280;68390;52.130;21.218;2023-05-20T08:44:32;101575.13;;;21.43;52.84
78990;BME280;68390;52.130;21.218;2023-05-20T08:46:58;101594.72;;;21.63;53.77
78990;BME280;68390;52.130;21.218;2023-05-20T08:49:24;101590.84;;;21.70;52.08
78990;BME280;68390;52.130;21.218;2023-05-20T08:51:49;101583.97;;;21.79;52.49
78990;BME280;68390;52.130;21.218;2023-05-20T08:54:15;101589.13;;;21.95;54.10
78990;BME280;68390;52.130;21.218;2023-05-20T08:56:42;101587.41;;;22.01;51.12
78990;BME280;68390;52.130;21.218;2023-05-20T08:59:08;101578.78;;;22.16;53.89
78990;BME280;68390;52.130;21.218;2023-05-20T09:01:39;101577.88;;;22.35;50.80
78990;BME280;68390;52.130;21.218;2023-05-20T09:04:05;101578.72;;;22.49;50.19
78990;BME280;68390;52.130;21.218;2023-05-20T09:06:44;101578.69;;;22.55;50.21
78990;BME280;68390;52.130;21.218;2023-05-20T09:09:11;101574.38;;;22.59;50.51
78990;BME280;68390;52.130;21.218;2023-05-20T09:11:39;101583.88;;;22.52;51.11
78990;BME280;68390;52.130;21.218;2023-05-20T09:14:05;101581.69;;;22.60;51.42
78990;BME280;68390;52.130;21.218;2023-05-20T09:16:30;101586.00;;;22.63;48.46
78990;BME280;68390;52.130;21.218;2023-05-20T09:18:55;101578.44;;;22.70;50.34
78990;BME280;68390;52.130;21.218;2023-05-20T09:21:30;101579.44;;;22.89;48.50
78990;BME280;68390;52.130;21.218;2023-05-20T09:23:55;101572.13;;;22.94;48.80
78990;BME280;68390;52.130;21.218;2023-05-20T09:26:27;101578.91;;;23.05;47.54
78990;BME280;68390;52.130;21.218;2023-05-20T09:28:56;101568.56;;;23.12;48.95
78990;BME280;68390;52.130;21.218;2023-05-20T09:31:26;101579.63;;;23.00;48.23
78990;BME280;68390;52.130;21.218;2023-05-20T09:33:53;101578.25;;;23.10;47.48
78990;BME280;68390;52.130;21.218;2023-05-20T09:36:21;101575.69;;;23.08;48.10
78990;BME280;68390;52.130;21.218;2023-05-20T09:38:50;101553.41;;;23.20;47.64
78990;BME280;68390;52.130;21.218;2023-05-20T09:41:17;101555.56;;;23.24;48.92
78990;BME280;68390;52.130;21.218;2023-05-20T09:43:46;101557.34;;;23.12;48.92
78990;BME280;68390;52.130;21.218;2023-05-20T09:46:12;101571.16;;;23.07;48.21
78990;BME280;68390;52.130;21.218;2023-05-20T09:48:38;101565.97;;;23.11;47.64
78990;BME280;68390;52.130;21.218;2023-05-20T09:51:04;101561.97;;;23.31;47.54
78990;BME280;68390;52.130;21.218;2023-05-20T09:53:31;101570.91;;;23.53;47.48
78990;BME280;68390;52.130;21.218;2023-05-20T09:55:56;101565.63;;;23.32;49.41
78990;BME280;68390;52.130;21.218;2023-05-20T09:58:22;101563.53;;;23.21;48.99
78990;BME280;68390;52.130;21.218;2023-05-20T10:00:49;101555.63;;;23.11;48.31
78990;BME280;68390;52.130;21.218;2023-05-20T10:03:15;101562.41;;;23.28;46.92
78990;BME280;68390;52.130;21.218;2023-05-20T10:05:47;101554.84;;;23.35;46.30
78990;BME280;68390;52.130;21.218;2023-05-20T10:11:10;101560.75;;;23.52;47.55
78990;BME280;68390;52.130;21.218;2023-05-20T10:14:05;101554.00;;;23.60;47.25
78990;BME280;68390;52.130;21.218;2023-05-20T10:19:37;101549.94;;;23.24;47.32
78990;BME280;68390;52.130;21.218;2023-05-20T10:22:07;101552.34;;;23.21;48.61
78990;BME280;68390;52.130;21.218;2023-05-20T10:24:36;101544.38;;;23.18;47.32
78990;BME280;68390;52.130;21.218;2023-05-20T10:27:03;101549.16;;;23.11;51.37
78990;BME280;68390;52.130;21.218;2023-05-20T10:29:41;101541.97;;;23.21;47.55
78990;BME280;68390;52.130;21.218;2023-05-20T10:32:07;101552.13;;;23.16;48.16
78990;BME280;68390;52.130;21.218;2023-05-20T10:34:44;101550.31;;;23.34;48.81
78990;BME280;68390;52.130;21.218;2023-05-20T10:37:20;101542.50;;;23.36;49.54
78990;BME280;68390;52.130;21.218;2023-05-20T10:39:47;101544.06;;;23.64;49.27
78990;BME280;68390;52.130;21.218;2023-05-20T10:42:12;101533.19;;;23.74;45.69
78990;BME280;68390;52.130;21.218;2023-05-20T10:44:45;101526.53;;;23.68;46.10
78990;BME280;68390;52.130;21.218;2023-05-20T10:47:12;101522.75;;;23.81;47.90
78990;BME280;68390;52.130;21.218;2023-05-20T10:49:44;101527.94;;;24.02;44.91
78990;BME280;68390;52.130;21.218;2023-05-20T10:52:12;101513.53;;;24.17;45.32
78990;BME280;68390;52.130;21.218;2023-05-20T10:54:47;101510.44;;;24.25;45.74
78990;BME280;68390;52.130;21.218;2023-05-20T10:57:19;101516.50;;;24.40;47.06
78990;BME280;68390;52.130;21.218;2023-05-20T10:59:45;101519.59;;;24.39;46.24
78990;BME280;68390;52.130;21.218;2023-05-20T11:02:14;101512.41;;;24.25;48.44
78990;BME280;68390;52.130;21.218;2023-05-20T11:04:43;101516.16;;;23.94;46.40
78990;BME280;68390;52.130;21.218;2023-05-20T11:07:09;101510.41;;;23.64;47.74
78990;BME280;68390;52.130;21.218;2023-05-20T11:09:35;101514.94;;;23.65;46.89
78990;BME280;68390;52.130;21.218;2023-05-20T11:12:00;101509.09;;;23.66;45.22
78990;BME280;68390;52.130;21.218;2023-05-20T11:14:29;101502.66;;;23.84;46.91
78990;BME280;68390;52.130;21.218;2023-05-20T11:16:58;101503.22;;;23.93;47.96
78990;BME280;68390;52.130;21.218;2023-05-20T11:19:27;101501.25;;;23.75;46.78
78990;BME280;68390;52.130;21.218;2023-05-20T11:21:52;101493.25;;;23.47;47.63
78990;BME280;68390;52.130;21.218;2023-05-20T11:24:24;101493.81;;;23.31;48.70
78990;BME280;68390;52.130;21.218;2023-05-20T11:26:50;101494.63;;;23.13;50.14
78990;BME280;68390;52.130;21.218;2023-05-20T11:29:16;101492.81;;;22.94;48.99
78990;BME280;68390;52.130;21.218;2023-05-20T11:31:44;101488.50;;;22.91;49.41
78990;BME280;68390;52.130;21.218;2023-05-20T11:34:09;101482.06;;;22.84;48.30
78990;BME280;68390;52.130;21.218;2023-05-20T11:36:42;101493.31;;;22.78;49.53
78990;BME280;68390;52.130;21.218;2023-05-20T11:39:11;101493.34;;;22.64;49.03
78990;BME280;68390;52.130;21.218;2023-05-20T11:41:38;101491.25;;;22.53;51.50
78990;BME280;68390;52.130;21.218;2023-05-20T11:44:03;101488.72;;;22.45;50.50
78990;BME280;68390;52.130;21.218;2023-05-20T11:46:29;101497.56;;;22.42;53.09
78990;BME280;68390;52.130;21.218;2023-05-20T11:48:56;101492.84;;;22.36;53.06
78990;BME280;68390;52.130;21.218;2023-05-20T11:51:30;101484.50;;;22.23;51.25
78990;BME280;68390;52.130;21.218;2023-05-20T11:54:01;101485.81;;;22.20;51.25
78990;BME280;68390;52.130;21.218;2023-05-20T11:56:36;101492.28;;;22.21;50.20
78990;BME280;68390;52.130;21.218;2023-05-20T11:59:03;101489.47;;;22.21;51.13
78990;BME280;68390;52.130;21.218;2023-05-20T12:01:35;101486.22;;;22.24;50.59
78990;BME280;68390;52.130;21.218;2023-05-20T12:04:10;101482.34;;;22.25;52.14
78990;BME280;68390;52.130;21.218;2023-05-20T12:06:37;101492.00;;;22.36;52.07
78990;BME280;68390;52.130;21.218;2023-05-20T12:09:04;101481.81;;;22.48;53.12
78990;BME280;68390;52.130;21.218;2023-05-20T12:11:35;101480.97;;;22.47;50.17
78990;BME280;68390;52.130;21.218;2023-05-20T12:14:02;101475.19;;;22.42;52.47
78990;BME280;68390;52.130;21.218;2023-05-20T12:16:29;101483.75;;;22.47;52.25
78990;BME280;68390;52.130;21.218;2023-05-20T12:18:55;101464.38;;;22.46;51.86
78990;BME280;68390;52.130;21.218;2023-05-20T12:21:20;101469.97;;;22.52;51.75
78990;BME280;68390;52.130;21.218;2023-05-20T12:23:45;101471.03;;;22.51;51.80
78990;BME280;68390;52.130;21.218;2023-05-20T12:26:11;101469.97;;;22.52;50.09
78990;BME280;68390;52.130;21.218;2023-05-20T12:28:36;101471.03;;;22.51;52.47
78990;BME280;68390;52.130;21.218;2023-05-20T12:31:02;101471.66;;;22.53;50.95
78990;BME280;68390;52.130;21.218;2023-05-20T12:33:40;101474.94;;;22.50;50.36
78990;BME280;68390;52.130;21.218;2023-05-20T12:36:08;101475.41;;;22.41;50.79
78990;BME280;68390;52.130;21.218;2023-05-20T12:38:38;101473.22;;;22.43;51.03
78990;BME280;68390;52.130;21.218;2023-05-20T12:41:07;101476.00;;;22.43;51.09
78990;BME280;68390;52.130;21.218;2023-05-20T12:43:34;101475.63;;;22.39;51.20
78990;BME280;68390;52.130;21.218;2023-05-20T12:46:01;101468.09;;;22.40;51.49